Time;durP1;ratioP1;P1;durP2;ratioP2;P2;SDS_P1;SDS_P2;PMS_P1;PMS_P2;Temp;Humidity;BMP_temperature;BMP_pressure;BME280_temperature;BME280_humidity;BME280_pressure;Samples;Min_cycle;Max_cycle;Signal;HPM_P1;HPM_P2
2022/12/08 00:00:52;;;;;;;9.00;5.80;;;;;;;0.32;100.00;98881.31;102082;1355;22771;-34
2022/12/08 00:03:17;;;;;;;13.90;8.90;;;;;;;0.35;100.00;98885.16;102041;1375;22501;-30
2022/12/08 00:10:43;;;;;;;13.30;8.60;;;;;;;0.18;100.00;98892.58;102049;1355;22412;-34
2022/12/08 00:13:09;;;;;;;26.80;10.70;;;;;;;0.25;100.00;98895.29;101991;1359;22636;-34
2022/12/08 00:15:34;;;;;;;14.60;7.30;;;;;;;0.21;100.00;98900.96;101988;1356;22284;-34
2022/12/08 00:18:00;;;;;;;15.10;7.80;;;;;;;0.23;100.00;98905.54;101993;1355;22181;-34
2022/12/08 00:20:26;;;;;;;19.80;10.50;;;;;;;0.27;100.00;98906.40;101996;1359;22336;-30
2022/12/08 00:22:51;;;;;;;15.10;8.70;;;;;;;0.27;100.00;98906.40;101956;1376;22661;-30
2022/12/08 00:25:17;;;;;;;11.90;8.10;;;;;;;0.37;100.00;98905.96;102183;1375;22682;-34
2022/12/08 00:27:43;;;;;;;14.60;8.80;;;;;;;0.40;100.00;98901.77;101997;1359;22403;-34
2022/12/08 00:30:09;;;;;;;19.70;11.30;;;;;;;0.41;100.00;98904.52;102199;1372;22715;-31
2022/12/08 00:32:36;;;;;;;14.30;7.50;;;;;;;0.31;100.00;98901.46;102006;1364;22156;-30
2022/12/08 00:35:02;;;;;;;12.80;8.60;;;;;;;0.38;100.00;98907.95;101682;1375;24278;-34
2022/12/08 00:37:28;;;;;;;12.00;8.00;;;;;;;0.48;100.00;98906.20;101883;1375;22614;-35
2022/12/08 00:39:53;;;;;;;11.70;6.70;;;;;;;0.42;100.00;98903.16;102032;1359;22535;-30
2022/12/08 00:42:20;;;;;;;12.90;6.70;;;;;;;0.36;100.00;98904.64;101963;1376;22331;-34
2022/12/08 00:44:46;;;;;;;18.50;8.70;;;;;;;0.41;100.00;98909.98;102097;1356;22252;-30
2022/12/08 00:47:12;;;;;;;14.20;9.00;;;;;;;0.33;100.00;98908.80;102007;1365;22589;-34
2022/12/08 00:49:38;;;;;;;13.90;8.50;;;;;;;0.35;100.00;98912.84;102179;1356;22441;-30
2022/12/08 00:52:03;;;;;;;24.00;8.60;;;;;;;0.38;100.00;98914.02;101922;1359;22302;-32
2022/12/08 00:54:29;;;;;;;9.90;6.30;;;;;;;0.43;100.00;98908.28;102099;1356;22264;-34
2022/12/08 00:56:55;;;;;;;10.40;6.90;;;;;;;0.59;100.00;98906.91;102013;1366;22694;-34
2022/12/08 00:59:20;;;;;;;17.20;9.20;;;;;;;0.56;100.00;98901.02;101983;1360;22315;-31
2022/12/08 01:01:46;;;;;;;15.80;9.10;;;;;;;0.43;100.00;98897.55;101984;1349;22613;-33
2022/12/08 01:04:14;;;;;;;13.40;8.30;;;;;;;0.44;100.00;98899.36;102064;1356;22602;-30
2022/12/08 01:06:40;;;;;;;12.10;7.80;;;;;;;0.59;100.00;98895.96;102018;1359;22603;-34
2022/12/08 01:09:06;;;;;;;13.70;7.10;;;;;;;0.60;100.00;98890.84;101683;1356;24419;-30
2022/12/08 01:11:32;;;;;;;7.60;4.60;;;;;;;0.64;100.00;98890.20;101093;1373;24280;-30
2022/12/08 01:13:58;;;;;;;13.80;8.60;;;;;;;0.64;100.00;98891.25;102011;1375;22633;-34
2022/12/08 01:16:27;;;;;;;13.70;7.10;;;;;;;0.53;100.00;98889.72;101912;1359;22604;-30
2022/12/08 01:18:52;;;;;;;10.70;7.80;;;;;;;0.49;100.00;98892.04;101897;1356;22613;-34
2022/12/08 01:21:18;;;;;;;10.90;6.00;;;;;;;0.61;100.00;98888.90;102065;1375;22672;-34
2022/12/08 01:23:44;;;;;;;11.10;7.10;;;;;;;0.57;100.00;98888.78;102012;1375;22495;-30
2022/12/08 01:26:10;;;;;;;17.70;8.90;;;;;;;0.55;100.00;98890.91;102022;1375;22225;-30
2022/12/08 01:28:36;;;;;;;9.80;5.30;;;;;;;0.52;100.00;98886.27;102067;1354;22347;-34
2022/12/08 01:31:02;;;;;;;29.60;8.10;;;;;;;0.47;100.00;98888.64;101782;1359;22618;-30
2022/12/08 01:33:28;;;;;;;11.30;8.40;;;;;;;0.36;100.00;98883.14;102081;1372;22629;-31
2022/12/08 01:35:54;;;;;;;10.50;5.00;;;;;;;0.36;100.00;98883.33;102027;1358;22136;-31
2022/12/08 01:38:20;;;;;;;9.20;5.80;;;;;;;0.22;100.00;98889.92;101950;1356;22750;-31
2022/12/08 01:40:45;;;;;;;13.60;8.20;;;;;;;0.22;100.00;98897.52;101847;1375;22613;-31
2022/12/08 01:43:14;;;;;;;14.30;7.40;;;;;;;0.23;100.00;98899.33;101927;1374;22653;-34
2022/12/08 01:45:40;;;;;;;15.60;8.10;;;;;;;0.26;100.00;98905.46;102016;1360;22308;-34
2022/12/08 01:48:08;;;;;;;11.80;7.40;;;;;;;0.31;100.00;98910.76;101987;1371;22446;-34
2022/12/08 01:50:34;;;;;;;12.10;7.00;;;;;;;0.35;100.00;98907.55;102046;1374;22335;-30
2022/12/08 01:53:04;;;;;;;10.30;7.10;;;;;;;0.35;100.00;98908.95;101827;1359;22343;-34
2022/12/08 01:55:32;;;;;;;13.00;8.70;;;;;;;0.37;100.00;98914.73;101910;1375;22290;-30
2022/12/08 01:58:02;;;;;;;13.30;8.70;;;;;;;0.39;100.00;98911.76;101997;1350;22401;-34
2022/12/08 02:00:27;;;;;;;11.10;7.00;;;;;;;0.45;100.00;98911.23;101958;1375;22176;-30
2022/12/08 02:02:57;;;;;;;16.20;9.30;;;;;;;0.47;100.00;98908.02;101339;1374;22328;-30
2022/12/08 02:05:26;;;;;;;22.80;7.80;;;;;;;0.50;100.00;98909.03;102086;1375;22435;-30
2022/12/08 02:07:51;;;;;;;8.90;7.40;;;;;;;0.50;100.00;98907.48;102040;1356;22298;-34
2022/12/08 02:10:19;;;;;;;14.10;8.00;;;;;;;0.48;100.00;98904.06;101977;1346;22795;-30
2022/12/08 02:12:44;;;;;;;12.10;7.90;;;;;;;0.51;100.00;98903.42;102117;1366;22151;-34
2022/12/08 02:15:10;;;;;;;10.60;7.60;;;;;;;0.50;100.00;98899.33;102075;1375;22170;-30
2022/12/08 02:17:46;;;;;;;7.80;6.30;;;;;;;0.49;100.00;98899.55;101785;1356;22593;-30
2022/12/08 02:20:19;;;;;;;13.60;7.90;;;;;;;0.49;100.00;98901.36;102098;1363;22925;-34
2022/12/08 02:22:48;;;;;;;8.20;7.30;;;;;;;0.48;100.00;98899.14;102070;1375;22137;-30
2022/12/08 02:25:19;;;;;;;12.10;7.50;;;;;;;0.72;100.00;98891.96;102018;1372;22418;-34
2022/12/08 02:27:54;;;;;;;13.90;8.40;;;;;;;0.82;100.00;98872.77;101985;1359;22713;-34
2022/12/08 02:30:29;;;;;;;11.90;7.70;;;;;;;0.72;100.00;98854.96;102033;1356;22690;-34
2022/12/08 02:33:02;;;;;;;12.80;9.20;;;;;;;0.56;100.00;98857.51;102189;1374;22503;-34
2022/12/08 02:35:34;;;;;;;12.20;7.80;;;;;;;0.42;100.00;98862.33;101937;1357;22218;-30
2022/12/08 02:38:07;;;;;;;11.00;6.00;;;;;;;0.50;100.00;98867.92;101920;1375;22399;-32
2022/12/08 02:40:34;;;;;;;11.60;6.70;;;;;;;0.64;100.00;98869.40;102056;1359;22654;-30
2022/12/08 02:43:05;;;;;;;12.90;7.50;;;;;;;0.55;100.00;98866.95;102021;1359;24306;-30
2022/12/08 02:45:36;;;;;;;8.80;6.00;;;;;;;0.30;100.00;98869.52;102033;1375;22672;-30
2022/12/08 02:48:02;;;;;;;11.60;6.20;;;;;;;0.26;100.00;98879.23;101545;1359;24394;-31
2022/12/08 02:50:27;;;;;;;12.70;6.80;;;;;;;0.26;100.00;98890.45;101852;1356;22304;-30
2022/12/08 02:52:53;;;;;;;11.30;7.00;;;;;;;0.30;100.00;98894.43;102012;1355;22315;-34
2022/12/08 02:55:24;;;;;;;12.90;8.20;;;;;;;0.35;100.00;98899.11;102046;1375;22319;-31
2022/12/08 02:57:53;;;;;;;7.80;5.50;;;;;;;0.40;100.00;98902.47;101972;1351;22310;-34
2022/12/08 03:00:20;;;;;;;14.30;8.60;;;;;;;0.42;100.00;98901.79;102064;1352;22614;-34
2022/12/08 03:02:50;;;;;;;15.10;9.40;;;;;;;0.41;100.00;98899.58;102106;1368;22465;-30
2022/12/08 03:05:22;;;;;;;12.40;7.80;;;;;;;0.39;100.00;98896.95;102036;1374;22253;-30
2022/12/08 03:07:54;;;;;;;12.20;8.80;;;;;;;0.40;100.00;98893.34;101725;1367;25480;-34
2022/12/08 03:10:31;;;;;;;10.20;7.60;;;;;;;0.39;100.00;98891.55;101897;1365;22792;-30
2022/12/08 03:13:03;;;;;;;15.30;8.40;;;;;;;0.36;100.00;98889.91;101967;1360;22613;-34
2022/12/08 03:15:28;;;;;;;11.70;8.20;;;;;;;0.36;100.00;98890.98;101922;1375;22634;-30
2022/12/08 03:17:56;;;;;;;9.10;5.30;;;;;;;0.36;100.00;98887.44;102030;1359;22297;-30
2022/12/08 03:20:23;;;;;;;12.90;8.60;;;;;;;0.31;100.00;98886.13;102063;1375;23402;-34
2022/12/08 03:22:50;;;;;;;12.40;8.70;;;;;;;0.27;100.00;98889.66;102005;1356;22323;-34
2022/12/08 03:25:16;;;;;;;15.30;9.70;;;;;;;0.28;100.00;98887.34;102006;1360;22171;-30
2022/12/08 03:27:42;;;;;;;6.30;4.30;;;;;;;0.28;100.00;98889.58;101961;1362;22217;-34
2022/12/08 03:30:08;;;;;;;11.10;7.80;;;;;;;0.29;100.00;98888.95;101939;1359;22181;-34
2022/12/08 03:32:36;;;;;;;19.90;9.20;;;;;;;0.29;100.00;98887.36;101984;1359;22411;-30
2022/12/08 03:35:04;;;;;;;12.90;8.10;;;;;;;0.27;100.00;98888.13;102033;1366;22358;-34
2022/12/08 03:37:30;;;;;;;13.40;7.90;;;;;;;0.23;100.00;98886.15;102001;1355;23020;-34
2022/12/08 03:39:55;;;;;;;11.20;6.80;;;;;;;0.22;100.00;98887.45;102008;1356;22311;-34
2022/12/08 03:42:21;;;;;;;11.00;7.10;;;;;;;0.20;100.00;98886.10;102077;1359;22451;-34
2022/12/08 03:44:47;;;;;;;9.20;6.30;;;;;;;0.14;100.00;98884.21;101987;1350;22411;-31
2022/12/08 03:47:12;;;;;;;9.40;7.00;;;;;;;0.13;100.00;98886.02;102122;1355;22623;-30
2022/12/08 03:49:39;;;;;;;12.50;7.80;;;;;;;0.13;100.00;98893.44;101830;1356;22448;-34
2022/12/08 03:52:05;;;;;;;12.20;8.20;;;;;;;0.13;100.00;98895.59;101946;1359;22470;-30
2022/12/08 03:54:30;;;;;;;11.70;7.40;;;;;;;0.10;100.00;98897.58;102016;1356;22652;-34
2022/12/08 03:56:56;;;;;;;14.30;8.00;;;;;;;0.09;100.00;98894.13;101875;1358;22677;-31
2022/12/08 03:59:22;;;;;;;16.60;8.00;;;;;;;0.11;100.00;98891.88;102006;1359;22315;-30
2022/12/08 04:01:47;;;;;;;17.50;10.80;;;;;;;0.09;100.00;98892.02;102002;1359;22626;-30
2022/12/08 04:04:13;;;;;;;12.40;7.90;;;;;;;0.08;100.00;98886.38;102046;1356;22281;-34
2022/12/08 04:06:38;;;;;;;13.70;9.80;;;;;;;0.05;100.00;98883.94;102014;1375;22724;-30
2022/12/08 04:09:04;;;;;;;12.70;7.40;;;;;;;0.03;100.00;98884.69;102022;1359;22233;-30
2022/12/08 04:11:29;;;;;;;13.70;8.40;;;;;;;0.03;100.00;98877.81;102002;1367;22231;-34
2022/12/08 04:13:55;;;;;;;8.00;6.00;;;;;;;-0.02;100.00;98873.52;101714;1358;22438;-34
2022/12/08 04:16:22;;;;;;;12.40;7.10;;;;;;;-0.06;100.00;98878.26;102135;1373;22686;-31
2022/12/08 04:18:48;;;;;;;9.60;7.20;;;;;;;-0.06;100.00;98883.21;102079;1359;22238;-34
2022/12/08 04:21:14;;;;;;;17.90;10.00;;;;;;;-0.06;100.00;98885.85;101810;1359;22615;-31
2022/12/08 04:23:39;;;;;;;17.90;10.60;;;;;;;-0.03;100.00;98889.45;101151;1372;22612;-30
2022/12/08 04:26:05;;;;;;;10.70;7.30;;;;;;;0.01;100.00;98889.77;102040;1359;22213;-30
2022/12/08 04:28:31;;;;;;;14.60;9.00;;;;;;;-0.03;100.00;98883.29;102010;1375;22460;-34
2022/12/08 04:30:56;;;;;;;14.20;9.20;;;;;;;-0.10;100.00;98881.82;101974;1358;22295;-34
2022/12/08 04:33:22;;;;;;;18.40;11.50;;;;;;;-0.09;100.00;98881.18;102079;1375;22321;-34
2022/12/08 04:35:48;;;;;;;13.90;7.90;;;;;;;-0.10;100.00;98886.21;102089;1365;22248;-34
2022/12/08 04:38:13;;;;;;;15.80;10.40;;;;;;;-0.12;100.00;98887.14;102013;1358;22697;-34
2022/12/08 04:40:39;;;;;;;13.70;9.10;;;;;;;-0.12;100.00;98888.13;102001;1365;22393;-31
2022/12/08 04:43:05;;;;;;;13.20;8.40;;;;;;;-0.14;100.00;98887.96;102101;1359;22406;-31
2022/12/08 04:45:30;;;;;;;7.90;5.40;;;;;;;-0.12;100.00;98884.29;102007;1356;22233;-30
2022/12/08 04:47:58;;;;;;;10.50;7.90;;;;;;;-0.11;100.00;98880.48;102012;1355;22149;-34
2022/12/08 04:50:24;;;;;;;16.40;10.00;;;;;;;-0.10;100.00;98880.92;102152;1359;22649;-34
2022/12/08 04:52:50;;;;;;;11.90;8.80;;;;;;;-0.09;100.00;98876.82;101546;1373;22347;-34
2022/12/08 04:55:15;;;;;;;12.90;6.90;;;;;;;-0.09;100.00;98876.07;102117;1355;22602;-30
2022/12/08 04:57:41;;;;;;;18.90;9.70;;;;;;;-0.12;100.00;98875.46;101977;1359;22526;-31
2022/12/08 05:00:07;;;;;;;16.50;9.10;;;;;;;-0.14;100.00;98872.19;102020;1359;22665;-30
2022/12/08 05:02:32;;;;;;;14.50;9.10;;;;;;;-0.16;100.00;98865.33;102057;1366;22344;-30
2022/12/08 05:04:58;;;;;;;11.50;6.60;;;;;;;-0.22;100.00;98865.54;101913;1359;22179;-34
2022/12/08 05:07:24;;;;;;;11.50;7.10;;;;;;;-0.35;100.00;98867.75;102028;1356;22333;-31
2022/12/08 05:09:49;;;;;;;17.30;10.20;;;;;;;-0.40;100.00;98863.69;101999;1359;22356;-34
2022/12/08 05:12:15;;;;;;;13.40;8.30;;;;;;;-0.41;100.00;98866.39;101992;1349;22416;-31
2022/12/08 05:14:40;;;;;;;15.80;9.60;;;;;;;-0.46;100.00;98868.08;102082;1358;22330;-32
2022/12/08 05:17:06;;;;;;;16.60;9.20;;;;;;;-0.45;100.00;98867.61;101903;1375;22633;-34
2022/12/08 05:19:31;;;;;;;19.20;9.70;;;;;;;-0.47;100.00;98865.67;102062;1356;22263;-30
2022/12/08 05:21:57;;;;;;;15.50;9.80;;;;;;;-0.51;100.00;98867.77;102059;1375;22428;-31
2022/12/08 05:24:22;;;;;;;21.00;9.40;;;;;;;-0.59;100.00;98870.48;101995;1372;22734;-34
2022/12/08 05:26:48;;;;;;;16.80;9.30;;;;;;;-0.60;100.00;98868.23;102000;1359;22412;-33
2022/12/08 05:29:13;;;;;;;21.30;13.20;;;;;;;-0.61;100.00;98872.27;101984;1359;22638;-31
2022/12/08 05:31:39;;;;;;;17.10;10.20;;;;;;;-0.64;100.00;98871.96;102036;1358;22371;-30
2022/12/08 05:34:04;;;;;;;16.90;10.10;;;;;;;-0.66;100.00;98870.55;101996;1346;22134;-34
2022/12/08 05:36:30;;;;;;;18.80;12.70;;;;;;;-0.70;100.00;98874.95;102012;1356;22138;-31
2022/12/08 05:38:56;;;;;;;32.20;13.20;;;;;;;-0.73;100.00;98876.44;102051;1356;22606;-34
2022/12/08 05:41:21;;;;;;;20.20;11.40;;;;;;;-0.75;100.00;98882.23;102095;1356;22628;-34
2022/12/08 05:43:47;;;;;;;15.20;10.20;;;;;;;-0.77;100.00;98883.67;102045;1375;22343;-30
2022/12/08 05:46:13;;;;;;;17.20;10.00;;;;;;;-0.76;100.00;98885.69;101964;1360;22685;-34
2022/12/08 05:48:39;;;;;;;16.70;10.90;;;;;;;-0.73;100.00;98891.12;101960;1365;22618;-35
2022/12/08 05:51:05;;;;;;;25.60;13.40;;;;;;;-0.68;100.00;98892.91;101943;1365;22364;-31
2022/12/08 05:53:31;;;;;;;19.70;10.10;;;;;;;-0.65;100.00;98897.09;102048;1359;22632;-31
2022/12/08 05:55:56;;;;;;;32.30;12.40;;;;;;;-0.58;100.00;98896.23;102047;1371;22252;-35
2022/12/08 05:58:23;;;;;;;24.30;10.30;;;;;;;-0.58;100.00;98895.90;101898;1355;22471;-30
2022/12/08 06:00:49;;;;;;;43.10;14.40;;;;;;;-0.55;100.00;98899.27;101963;1358;22500;-34
2022/12/08 06:03:16;;;;;;;48.80;19.90;;;;;;;-0.46;100.00;98901.45;101826;1359;22320;-34
2022/12/08 06:05:42;;;;;;;29.50;12.40;;;;;;;-0.42;100.00;98903.04;101978;1359;22344;-30
2022/12/08 06:08:07;;;;;;;25.20;10.30;;;;;;;-0.43;100.00;98897.33;101694;1375;23016;-34
2022/12/08 06:10:33;;;;;;;17.60;9.70;;;;;;;-0.41;100.00;98901.71;101987;1371;22611;-34
2022/12/08 06:12:58;;;;;;;12.80;7.80;;;;;;;-0.35;100.00;98904.16;101947;1359;22291;-30
2022/12/08 06:15:24;;;;;;;21.30;11.80;;;;;;;-0.31;100.00;98908.39;101969;1356;22634;-30
2022/12/08 06:17:50;;;;;;;36.90;16.20;;;;;;;-0.27;100.00;98902.02;101986;1375;22595;-30
2022/12/08 06:20:15;;;;;;;39.40;14.80;;;;;;;-0.28;100.00;98900.15;102027;1375;22331;-31
2022/12/08 06:22:41;;;;;;;28.80;12.10;;;;;;;-0.25;100.00;98900.11;101935;1356;22215;-34
2022/12/08 06:25:07;;;;;;;28.90;12.30;;;;;;;-0.26;100.00;98899.95;101804;1359;22632;-30
2022/12/08 06:27:32;;;;;;;28.70;11.90;;;;;;;-0.21;100.00;98902.71;101243;1358;22619;-30
2022/12/08 06:29:58;;;;;;;55.30;20.20;;;;;;;-0.22;100.00;98901.59;101889;1358;22615;-30
2022/12/08 06:32:24;;;;;;;34.70;15.50;;;;;;;-0.17;100.00;98901.61;101803;1375;22261;-34
2022/12/08 06:34:49;;;;;;;30.40;12.60;;;;;;;-0.17;100.00;98900.55;101989;1372;22346;-31
2022/12/08 06:37:15;;;;;;;23.80;12.40;;;;;;;-0.12;100.00;98904.20;102059;1365;22626;-34
2022/12/08 06:39:41;;;;;;;31.50;12.70;;;;;;;-0.10;100.00;98904.75;101723;1359;22225;-31
2022/12/08 06:44:35;;;;;;;35.20;12.50;;;;;;;-0.08;100.00;98900.46;101911;1359;22656;-31
2022/12/08 06:47:01;;;;;;;21.50;10.90;;;;;;;-0.09;100.00;98901.11;102007;1375;22271;-31
2022/12/08 06:49:27;;;;;;;;;;;;;;;-0.13;100.00;98894.80;102048;1355;22148;-31
2022/12/08 06:51:53;;;;;;;21.60;12.50;;;;;;;-0.09;100.00;98896.36;101887;1357;22345;-34
2022/12/08 06:54:18;;;;;;;23.90;10.90;;;;;;;-0.05;100.00;98895.29;102056;1356;22308;-30
2022/12/08 06:56:44;;;;;;;27.60;13.00;;;;;;;-0.03;100.00;98897.17;102065;1352;22308;-34
2022/12/08 06:59:09;;;;;;;28.60;12.20;;;;;;;0.01;100.00;98897.04;101981;1356;22190;-34
2022/12/08 07:01:35;;;;;;;23.90;11.10;;;;;;;-0.03;100.00;98895.04;102012;1356;22527;-30
2022/12/08 07:04:01;;;;;;;21.00;10.00;;;;;;;0.04;100.00;98897.98;101872;1356;22606;-30
2022/12/08 07:06:26;;;;;;;;;;;;;;;0.11;100.00;98889.90;102024;1350;22198;-34
2022/12/08 07:08:52;;;;;;;19.00;10.80;;;;;;;0.07;100.00;98890.10;102031;1361;23816;-34
2022/12/08 07:11:17;;;;;;;27.00;13.20;;;;;;;0.08;100.00;98888.98;101907;1359;22435;-31
2022/12/08 07:13:42;;;;;;;24.40;13.50;;;;;;;0.16;100.00;98885.45;101480;1372;22715;-29
2022/12/08 07:16:09;;;;;;;18.00;12.20;;;;;;;0.13;100.00;98881.84;102007;1372;23375;-32
2022/12/08 07:18:34;;;;;;;22.10;9.80;;;;;;;0.14;100.00;98881.52;101993;1353;22636;-31
2022/12/08 07:21:04;;;;;;;19.50;11.80;;;;;;;0.14;100.00;98879.96;102026;1375;22224;-35
2022/12/08 07:23:30;;;;;;;22.70;12.20;;;;;;;0.09;100.00;98881.13;102051;1375;22313;-31
2022/12/08 07:26:00;;;;;;;13.80;9.60;;;;;;;0.11;100.00;98879.77;101901;1359;22213;-31
2022/12/08 07:28:25;;;;;;;22.40;13.50;;;;;;;0.10;100.00;98880.70;102032;1355;22532;-31
2022/12/08 07:30:51;;;;;;;19.60;11.80;;;;;;;0.14;100.00;98881.92;102073;1359;22300;-35
2022/12/08 07:33:16;;;;;;;25.40;10.70;;;;;;;0.13;100.00;98886.73;102026;1356;22653;-31
2022/12/08 07:35:42;;;;;;;18.30;9.50;;;;;;;0.15;100.00;98886.91;101827;1355;22411;-35
2022/12/08 07:38:09;;;;;;;18.50;8.60;;;;;;;0.18;100.00;98884.15;101913;1375;22615;-35
2022/12/08 07:40:35;;;;;;;23.40;12.10;;;;;;;0.26;100.00;98887.67;102105;1368;22312;-34
2022/12/08 07:43:01;;;;;;;20.60;11.30;;;;;;;0.34;100.00;98891.50;101933;1355;22658;-31
2022/12/08 07:45:27;;;;;;;19.80;9.30;;;;;;;0.38;100.00;98883.35;101131;1356;433886;-30
2022/12/08 07:47:52;;;;;;;17.10;8.80;;;;;;;0.41;100.00;98886.02;101879;1359;22314;-34
2022/12/08 07:50:19;;;;;;;6.90;6.20;;;;;;;0.51;100.00;98888.60;101997;1359;22161;-30
2022/12/08 07:52:44;;;;;;;17.90;10.00;;;;;;;0.58;100.00;98878.67;101925;1352;22622;-30
2022/12/08 07:55:10;;;;;;;15.30;9.80;;;;;;;0.59;100.00;98876.33;100437;1356;24919;-30
2022/12/08 07:57:35;;;;;;;21.80;11.60;;;;;;;0.68;100.00;98875.61;101659;1375;22628;-34
2022/12/08 08:00:03;;;;;;;22.50;11.20;;;;;;;0.74;100.00;98871.88;102097;1356;22903;-34
2022/12/08 08:02:28;;;;;;;22.20;11.30;;;;;;;0.81;100.00;98867.08;102003;1367;22408;-31
2022/12/08 08:04:54;;;;;;;15.30;8.30;;;;;;;0.80;100.00;98865.41;101988;1356;22498;-31
2022/12/08 08:07:19;;;;;;;13.30;9.40;;;;;;;0.78;100.00;98859.31;102098;1375;22174;-34
2022/12/08 08:09:45;;;;;;;18.50;9.60;;;;;;;0.75;100.00;98857.62;101988;1355;22636;-34
2022/12/08 08:12:10;;;;;;;24.10;12.10;;;;;;;0.68;100.00;98859.30;102028;1355;22228;-34
2022/12/08 08:14:36;;;;;;;19.50;10.10;;;;;;;0.74;100.00;98864.24;101883;1368;22191;-30
2022/12/08 08:17:01;;;;;;;22.40;9.20;;;;;;;0.79;100.00;98856.15;101980;1371;22626;-31
2022/12/08 08:19:27;;;;;;;17.20;7.90;;;;;;;0.76;100.00;98852.22;102042;1359;22324;-34
2022/12/08 08:21:53;;;;;;;24.10;14.10;;;;;;;0.70;100.00;98853.02;102088;1375;22347;-30
2022/12/08 08:24:20;;;;;;;18.70;9.90;;;;;;;0.68;100.00;98850.73;102136;1356;22289;-35
2022/12/08 08:26:45;;;;;;;14.20;8.90;;;;;;;0.62;100.00;98849.40;101930;1366;22287;-30
2022/12/08 08:29:11;;;;;;;16.90;10.60;;;;;;;0.64;100.00;98852.54;102063;1359;22467;-34
2022/12/08 08:31:36;;;;;;;21.10;11.70;;;;;;;0.75;100.00;98860.30;101958;1358;23818;-30
2022/12/08 08:34:04;;;;;;;36.20;14.10;;;;;;;0.88;100.00;98864.13;101948;1356;22340;-31
2022/12/08 08:36:31;;;;;;;16.70;8.70;;;;;;;1.08;100.00;98862.77;102055;1356;22162;-30
2022/12/08 08:38:56;;;;;;;22.90;12.10;;;;;;;1.23;100.00;98860.35;102086;1359;22580;-35
2022/12/08 08:41:22;;;;;;;29.70;15.10;;;;;;;1.36;100.00;98860.54;102044;1349;22646;-31
2022/12/08 08:43:48;;;;;;;18.60;11.70;;;;;;;1.50;100.00;98856.11;102001;1375;22188;-34
2022/12/08 08:46:13;;;;;;;19.40;9.90;;;;;;;1.54;100.00;98849.52;102013;1359;22202;-33
2022/12/08 08:48:39;;;;;;;24.00;12.50;;;;;;;1.62;100.00;98846.14;101954;1356;22714;-31
2022/12/08 08:51:07;;;;;;;23.90;12.30;;;;;;;1.55;100.00;98843.52;102039;1356;22294;-33
2022/12/08 08:53:33;;;;;;;24.80;12.40;;;;;;;1.52;100.00;98838.81;101951;1375;22617;-31
2022/12/08 08:55:59;;;;;;;22.10;11.40;;;;;;;1.52;100.00;98836.41;101937;1359;22462;-34
2022/12/08 08:58:25;;;;;;;34.70;12.60;;;;;;;1.38;100.00;98839.44;101719;1374;22626;-34
2022/12/08 09:00:50;;;;;;;22.60;10.20;;;;;;;1.40;100.00;98842.27;101983;1359;22113;-31
2022/12/08 09:03:17;;;;;;;31.70;10.80;;;;;;;1.36;100.00;98834.03;102009;1355;22370;-34
2022/12/08 09:05:43;;;;;;;16.40;9.80;;;;;;;1.35;100.00;98825.34;101954;1359;22158;-31
2022/12/08 09:08:09;;;;;;;19.60;11.80;;;;;;;1.33;100.00;98823.77;102000;1375;22620;-31
2022/12/08 09:10:34;;;;;;;23.70;12.90;;;;;;;1.36;100.00;98831.55;101685;1376;22637;-35
2022/12/08 09:13:00;;;;;;;22.30;13.60;;;;;;;1.43;100.00;98827.86;102110;1352;22545;-31
2022/12/08 09:15:26;;;;;;;26.80;14.20;;;;;;;1.58;100.00;98826.43;101869;1360;22613;-31
2022/12/08 09:17:51;;;;;;;32.20;16.70;;;;;;;1.69;100.00;98825.16;101972;1356;22348;-34
2022/12/08 09:20:16;;;;;;;23.10;12.60;;;;;;;1.77;100.00;98821.83;101979;1371;22647;-31
2022/12/08 09:22:42;;;;;;;23.90;12.30;;;;;;;1.84;100.00;98825.34;102079;1357;22639;-34
2022/12/08 09:25:08;;;;;;;37.00;15.30;;;;;;;2.02;100.00;98824.23;102012;1355;22341;-31
2022/12/08 09:27:34;;;;;;;31.00;14.60;;;;;;;2.11;100.00;98820.34;101993;1355;22350;-31
2022/12/08 09:29:59;;;;;;;63.90;26.00;;;;;;;2.31;100.00;98816.18;101513;1355;22703;-30
2022/12/08 09:32:25;;;;;;;23.70;13.90;;;;;;;2.60;100.00;98811.23;101904;1356;22401;-31
2022/12/08 09:34:50;;;;;;;105.10;39.80;;;;;;;2.80;100.00;98800.60;101996;1355;22614;-31
2022/12/08 09:37:16;;;;;;;29.80;15.80;;;;;;;2.91;100.00;98791.70;101878;1366;22614;-31
2022/12/08 09:39:42;;;;;;;27.70;14.10;;;;;;;2.94;100.00;98787.27;101958;1356;22626;-31
2022/12/08 09:42:08;;;;;;;37.50;18.80;;;;;;;3.10;100.00;98782.41;101658;1375;22618;-30
2022/12/08 09:44:37;;;;;;;38.00;18.20;;;;;;;3.12;100.00;98781.12;101521;1375;24389;-32
2022/12/08 09:47:07;;;;;;;109.00;53.70;;;;;;;3.15;100.00;98779.64;102108;1375;22639;-31
2022/12/08 09:49:37;;;;;;;20.30;12.30;;;;;;;3.24;100.00;98779.71;102036;1356;22184;-35
2022/12/08 09:52:03;;;;;;;36.80;20.70;;;;;;;3.28;100.00;98778.72;102017;1359;22283;-31
2022/12/08 09:54:32;;;;;;;32.60;17.10;;;;;;;3.32;100.00;98775.11;102016;1371;22630;-31
2022/12/08 09:56:58;;;;;;;33.40;15.60;;;;;;;3.35;100.00;98774.48;101786;1365;22436;-35
2022/12/08 09:59:26;;;;;;;21.40;9.00;;;;;;;3.27;100.00;98773.02;101987;1367;22332;-31
2022/12/08 10:01:52;;;;;;;21.00;11.80;;;;;;;3.17;100.00;98778.41;102050;1356;22355;-34
2022/12/08 10:04:20;;;;;;;18.40;12.10;;;;;;;3.01;100.00;98783.90;102029;1365;22605;-31
2022/12/08 10:06:53;;;;;;;46.50;13.10;;;;;;;2.93;100.00;98784.18;102069;1359;22135;-34
2022/12/08 10:09:22;;;;;;;26.10;14.60;;;;;;;2.75;100.00;98781.02;102012;1370;23138;-35
2022/12/08 10:11:53;;;;;;;16.40;10.40;;;;;;;2.69;100.00;98776.91;102091;1357;22318;-34
2022/12/08 10:14:22;;;;;;;19.40;11.80;;;;;;;2.76;100.00;98777.86;102021;1375;22453;-34
2022/12/08 10:16:49;;;;;;;27.30;13.90;;;;;;;2.62;100.00;98773.49;102051;1375;22685;-34
2022/12/08 10:19:17;;;;;;;20.50;10.80;;;;;;;2.56;100.00;98774.02;102009;1375;22742;-34
2022/12/08 10:21:43;;;;;;;26.10;11.20;;;;;;;2.58;100.00;98769.78;101983;1375;24286;-34
2022/12/08 10:24:16;;;;;;;23.00;10.30;;;;;;;2.57;100.00;98770.33;101972;1355;22289;-30
2022/12/08 10:26:41;;;;;;;19.80;8.80;;;;;;;2.63;100.00;98768.16;101994;1375;22700;-30
2022/12/08 10:29:11;;;;;;;19.10;10.30;;;;;;;2.66;100.00;98763.74;101976;1359;22473;-34
2022/12/08 10:31:37;;;;;;;23.10;11.20;;;;;;;2.76;100.00;98761.48;102031;1359;22254;-34
2022/12/08 10:34:09;;;;;;;26.00;13.20;;;;;;;2.83;100.00;98761.30;102035;1352;22310;-34
2022/12/08 10:36:42;;;;;;;20.90;11.90;;;;;;;2.97;100.00;98755.70;102010;1356;22444;-31
2022/12/08 10:39:20;;;;;;;;;;;;;;;3.02;100.00;98754.13;101883;1374;22604;-31
2022/12/08 10:41:45;;;;;;;15.00;6.80;;;;;;;3.08;100.00;98748.86;101691;1355;22629;-31
2022/12/08 10:44:11;;;;;;;12.90;7.70;;;;;;;3.18;100.00;98748.77;101611;1375;22284;-30
2022/12/08 10:46:36;;;;;;;14.30;8.20;;;;;;;3.23;100.00;98746.11;102017;1374;22241;-34
2022/12/08 10:49:10;;;;;;;24.20;11.30;;;;;;;3.32;100.00;98745.84;102027;1367;23863;-35
2022/12/08 10:51:38;;;;;;;19.40;10.90;;;;;;;3.43;100.00;98742.03;102010;1356;22644;-31
2022/12/08 10:54:05;;;;;;;14.60;9.20;;;;;;;3.45;100.00;98735.59;101982;1355;22188;-30
2022/12/08 10:56:31;;;;;;;26.20;12.50;;;;;;;3.59;100.00;98734.45;101515;1352;22604;-34
2022/12/08 10:59:03;;;;;;;11.80;7.10;;;;;;;3.61;100.00;98733.35;102038;1356;22167;-31
2022/12/08 11:01:33;;;;;;;23.00;11.60;;;;;;;3.71;100.00;98731.30;101969;1374;22612;-35
2022/12/08 11:04:00;;;;;;;18.60;10.10;;;;;;;3.71;100.00;98726.00;102049;1356;22623;-35
2022/12/08 11:06:31;;;;;;;19.40;9.40;;;;;;;3.74;100.00;98721.76;102077;1375;22611;-31
2022/12/08 11:08:59;;;;;;;14.70;10.10;;;;;;;3.90;100.00;98716.33;101943;1358;22161;-34
2022/12/08 11:11:31;;;;;;;43.60;7.20;;;;;;;4.00;100.00;98719.32;101940;1356;22652;-30
2022/12/08 11:13:57;;;;;;;13.50;7.80;;;;;;;4.08;100.00;98712.40;102121;1357;22999;-34
2022/12/08 11:16:22;;;;;;;12.40;6.20;;;;;;;4.26;100.00;98709.29;101971;1357;22537;-31